sensor_id;sensor_type;location;lat;lon;timestamp;pressure;altitude;pressure_sealevel;temperature;humidity
19236;BME280;9752;54.270;12.470;2023-07-31T00:01:20;101896.09;;;12.41;100.00
19236;BME280;9752;54.270;12.470;2023-07-31T00:06:23;101918.75;;;12.30;100.00
19236;BME280;9752;54.270;12.470;2023-07-31T00:11:25;102024.16;;;12.25;100.00
19236;BME280;9752;54.270;12.470;2023-07-31T00:16:27;102035.72;;;12.17;100.00
19236;BME280;9752;54.270;12.470;2023-07-31T00:21:30;102045.66;;;12.10;100.00
19236;BME280;9752;54.270;12.470;2023-07-31T00:26:31;102077.09;;;12.14;100.00
19236;BME280;9752;54.270;12.470;2023-07-31T00:31:33;102106.84;;;12.17;100.00
19236;BME280;9752;54.270;12.470;2023-07-31T00:36:36;102108.28;;;12.14;100.00
19236;BME280;9752;54.270;12.470;2023-07-31T00:41:38;102128.41;;;12.04;100.00
19236;BME280;9752;54.270;12.470;2023-07-31T00:46:39;102134.63;;;11.95;100.00
19236;BME280;9752;54.270;12.470;2023-07-31T00:51:42;102130.63;;;11.88;100.00
19236;BME280;9752;54.270;12.470;2023-07-31T00:56:46;102150.16;;;11.83;100.00
19236;BME280;9752;54.270;12.470;2023-07-31T01:01:49;102138.81;;;11.70;100.00
19236;BME280;9752;54.270;12.470;2023-07-31T01:06:56;102151.69;;;11.69;100.00
19236;BME280;9752;54.270;12.470;2023-07-31T01:12:04;102147.06;;;11.65;100.00
19236;BME280;9752;54.270;12.470;2023-07-31T01:17:05;102157.31;;;11.63;100.00
19236;BME280;9752;54.270;12.470;2023-07-31T01:22:21;102172.13;;;11.64;100.00
19236;BME280;9752;54.270;12.470;2023-07-31T01:27:28;102177.75;;;11.59;100.00
19236;BME280;9752;54.270;12.470;2023-07-31T01:32:32;102182.59;;;11.54;100.00
19236;BME280;9752;54.270;12.470;2023-07-31T01:37:34;102206.53;;;11.50;100.00
19236;BME280;9752;54.270;12.470;2023-07-31T01:42:37;102218.97;;;11.54;100.00
19236;BME280;9752;54.270;12.470;2023-07-31T01:47:38;102237.84;;;11.51;100.00
19236;BME280;9752;54.270;12.470;2023-07-31T01:52:40;102245.72;;;11.53;100.00
19236;BME280;9752;54.270;12.470;2023-07-31T01:57:44;102250.91;;;11.53;100.00
19236;BME280;9752;54.270;12.470;2023-07-31T02:02:45;102275.53;;;11.68;100.00
19236;BME280;9752;54.270;12.470;2023-07-31T02:07:47;102311.31;;;11.93;100.00
19236;BME280;9752;54.270;12.470;2023-07-31T02:12:50;102327.47;;;12.11;100.00
19236;BME280;9752;54.270;12.470;2023-07-31T02:17:52;102342.38;;;12.14;100.00
19236;BME280;9752;54.270;12.470;2023-07-31T02:22:54;102360.59;;;12.14;100.00
19236;BME280;9752;54.270;12.470;2023-07-31T02:27:57;102356.25;;;12.24;100.00
19236;BME280;9752;54.270;12.470;2023-07-31T02:32:58;102369.38;;;12.26;100.00
19236;BME280;9752;54.270;12.470;2023-07-31T02:38:00;102369.38;;;12.26;100.00
19236;BME280;9752;54.270;12.470;2023-07-31T02:43:03;102382.41;;;12.26;100.00
19236;BME280;9752;54.270;12.470;2023-07-31T02:48:05;102388.50;;;12.26;100.00
19236;BME280;9752;54.270;12.470;2023-07-31T02:53:07;102414.69;;;12.40;100.00
19236;BME280;9752;54.270;12.470;2023-07-31T02:58:11;102430.34;;;12.52;100.00
19236;BME280;9752;54.270;12.470;2023-07-31T03:03:12;102447.59;;;12.61;100.00
19236;BME280;9752;54.270;12.470;2023-07-31T03:08:14;102477.91;;;12.71;100.00
19236;BME280;9752;54.270;12.470;2023-07-31T03:13:17;102493.31;;;12.80;100.00
19236;BME280;9752;54.270;12.470;2023-07-31T03:18:18;102485.63;;;12.81;100.00
19236;BME280;9752;54.270;12.470;2023-07-31T03:23:20;102485.19;;;12.87;100.00
19236;BME280;9752;54.270;12.470;2023-07-31T03:28:23;102486.13;;;12.99;100.00
19236;BME280;9752;54.270;12.470;2023-07-31T03:33:25;102502.13;;;13.04;100.00
19236;BME280;9752;54.270;12.470;2023-07-31T03:38:26;102508.63;;;13.09;100.00
19236;BME280;9752;54.270;12.470;2023-07-31T03:43:29;102527.31;;;13.15;100.00
19236;BME280;9752;54.270;12.470;2023-07-31T03:48:31;102548.88;;;13.24;100.00
19236;BME280;9752;54.270;12.470;2023-07-31T03:53:33;102543.13;;;13.28;100.00
19236;BME280;9752;54.270;12.470;2023-07-31T03:58:36;102553.91;;;13.33;100.00
19236;BME280;9752;54.270;12.470;2023-07-31T04:03:37;102581.59;;;13.43;100.00
19236;BME280;9752;54.270;12.470;2023-07-31T04:08:39;102574.84;;;13.45;100.00
19236;BME280;9752;54.270;12.470;2023-07-31T04:13:42;102566.88;;;13.43;100.00
19236;BME280;9752;54.270;12.470;2023-07-31T04:18:44;102567.59;;;13.53;100.00
19236;BME280;9752;54.270;12.470;2023-07-31T04:23:45;102567.25;;;13.60;100.00
19236;BME280;9752;54.270;12.470;2023-07-31T04:28:48;102579.47;;;13.83;100.00
19236;BME280;9752;54.270;12.470;2023-07-31T04:33:50;102585.47;;;14.05;100.00
19236;BME280;9752;54.270;12.470;2023-07-31T04:38:51;102594.09;;;14.28;100.00
19236;BME280;9752;54.270;12.470;2023-07-31T04:43:54;102562.56;;;14.25;100.00
19236;BME280;9752;54.270;12.470;2023-07-31T04:48:56;102539.88;;;14.12;100.00
19236;BME280;9752;54.270;12.470;2023-07-31T04:53:58;102520.91;;;14.15;100.00
19236;BME280;9752;54.270;12.470;2023-07-31T04:59:01;102510.69;;;14.30;100.00
19236;BME280;9752;54.270;12.470;2023-07-31T05:04:03;102489.13;;;14.20;100.00
19236;BME280;9752;54.270;12.470;2023-07-31T05:09:04;102487.47;;;14.21;100.00
19236;BME280;9752;54.270;12.470;2023-07-31T05:14:07;102463.94;;;14.33;100.00
19236;BME280;9752;54.270;12.470;2023-07-31T05:19:09;102444.72;;;14.44;100.00
19236;BME280;9752;54.270;12.470;2023-07-31T05:24:11;102432.31;;;14.65;100.00
19236;BME280;9752;54.270;12.470;2023-07-31T05:29:13;102406.72;;;14.73;100.00
19236;BME280;9752;54.270;12.470;2023-07-31T05:34:16;102368.06;;;14.80;100.00
19236;BME280;9752;54.270;12.470;2023-07-31T05:39:18;102350.22;;;15.00;100.00
19236;BME280;9752;54.270;12.470;2023-07-31T05:44:21;102333.66;;;15.13;100.00
19236;BME280;9752;54.270;12.470;2023-07-31T05:49:23;102301.56;;;15.29;100.00
19236;BME280;9752;54.270;12.470;2023-07-31T05:54:24;102270.63;;;15.35;100.00
19236;BME280;9752;54.270;12.470;2023-07-31T05:59:27;102247.03;;;15.61;100.00
19236;BME280;9752;54.270;12.470;2023-07-31T06:04:29;102220.03;;;15.76;100.00
19236;BME280;9752;54.270;12.470;2023-07-31T06:09:31;102199.59;;;15.98;100.00
19236;BME280;9752;54.270;12.470;2023-07-31T06:14:34;102171.19;;;16.19;100.00
19236;BME280;9752;54.270;12.470;2023-07-31T06:19:36;102149.59;;;16.68;100.00
19236;BME280;9752;54.270;12.470;2023-07-31T06:24:37;102041.19;;;16.66;100.00
19236;BME280;9752;54.270;12.470;2023-07-31T06:29:40;101982.41;;;16.77;100.00
19236;BME280;9752;54.270;12.470;2023-07-31T06:34:42;101927.66;;;16.98;100.00
19236;BME280;9752;54.270;12.470;2023-07-31T06:39:44;101869.59;;;17.25;100.00
19236;BME280;9752;54.270;12.470;2023-07-31T06:44:47;101791.22;;;17.13;100.00
19236;BME280;9752;54.270;12.470;2023-07-31T06:49:48;101660.84;;;17.09;100.00
19236;BME280;9752;54.270;12.470;2023-07-31T06:55:01;101587.19;;;17.23;100.00
19236;BME280;9752;54.270;12.470;2023-07-31T07:00:07;101545.00;;;17.37;100.00
19236;BME280;9752;54.270;12.470;2023-07-31T07:05:09;101507.09;;;17.50;100.00
19236;BME280;9752;54.270;12.470;2023-07-31T07:10:11;101453.41;;;17.42;100.00
19236;BME280;9752;54.270;12.470;2023-07-31T07:15:14;101398.34;;;17.42;100.00
19236;BME280;9752;54.270;12.470;2023-07-31T07:20:16;101374.75;;;17.21;100.00
19236;BME280;9752;54.270;12.470;2023-07-31T07:25:17;101356.81;;;17.32;100.00
19236;BME280;9752;54.270;12.470;2023-07-31T07:30:20;101332.78;;;17.42;100.00
19236;BME280;9752;54.270;12.470;2023-07-31T07:35:22;101305.13;;;17.50;100.00
19236;BME280;9752;54.270;12.470;2023-07-31T07:40:24;101284.97;;;17.93;100.00
19236;BME280;9752;54.270;12.470;2023-07-31T07:45:27;101268.91;;;18.32;100.00
19236;BME280;9752;54.270;12.470;2023-07-31T07:50:29;101224.06;;;19.03;100.00
19236;BME280;9752;54.270;12.470;2023-07-31T07:55:30;101169.66;;;19.29;100.00
19236;BME280;9752;54.270;12.470;2023-07-31T08:00:33;101066.06;;;19.24;100.00
19236;BME280;9752;54.270;12.470;2023-07-31T08:05:35;100910.19;;;19.29;100.00
19236;BME280;9752;54.270;12.470;2023-07-31T08:10:36;100808.78;;;19.77;100.00
19236;BME280;9752;54.270;12.470;2023-07-31T08:15:42;100774.72;;;19.85;100.00
19236;BME280;9752;54.270;12.470;2023-07-31T08:20:44;100766.97;;;19.91;100.00
19236;BME280;9752;54.270;12.470;2023-07-31T08:25:45;100745.06;;;19.18;100.00
19236;BME280;9752;54.270;12.470;2023-07-31T08:30:48;100731.28;;;18.58;100.00
19236;BME280;9752;54.270;12.470;2023-07-31T08:35:51;100735.69;;;18.27;100.00
19236;BME280;9752;54.270;12.470;2023-07-31T08:40:52;100745.03;;;18.48;100.00
19236;BME280;9752;54.270;12.470;2023-07-31T08:45:56;100743.94;;;18.09;100.00
19236;BME280;9752;54.270;12.470;2023-07-31T08:50:58;100744.34;;;17.64;100.00
19236;BME280;9752;54.270;12.470;2023-07-31T08:56:00;100755.03;;;17.43;100.00
19236;BME280;9752;54.270;12.470;2023-07-31T09:01:04;100758.88;;;17.54;100.00
19236;BME280;9752;54.270;12.470;2023-07-31T09:06:06;100762.53;;;18.49;100.00
19236;BME280;9752;54.270;12.470;2023-07-31T09:11:08;100755.44;;;19.11;100.00
19236;BME280;9752;54.270;12.470;2023-07-31T09:16:11;100735.38;;;20.34;100.00
19236;BME280;9752;54.270;12.470;2023-07-31T09:21:13;100705.56;;;20.85;100.00
19236;BME280;9752;54.270;12.470;2023-07-31T09:26:29;100680.44;;;21.68;100.00
19236;BME280;9752;54.270;12.470;2023-07-31T09:31:38;100666.59;;;21.23;100.00
19236;BME280;9752;54.270;12.470;2023-07-31T09:36:41;100666.53;;;21.17;100.00
19236;BME280;9752;54.270;12.470;2023-07-31T09:41:45;100658.38;;;20.50;100.00
19236;BME280;9752;54.270;12.470;2023-07-31T09:46:48;100661.03;;;21.03;100.00
19236;BME280;9752;54.270;12.470;2023-07-31T09:51:50;100654.25;;;21.83;100.00
19236;BME280;9752;54.270;12.470;2023-07-31T09:56:52;100636.81;;;21.32;100.00
19236;BME280;9752;54.270;12.470;2023-07-31T10:01:58;100614.69;;;21.22;100.00
19236;BME280;9752;54.270;12.470;2023-07-31T10:07:02;100623.97;;;21.55;100.00
19236;BME280;9752;54.270;12.470;2023-07-31T10:12:06;100633.88;;;21.11;100.00
19236;BME280;9752;54.270;12.470;2023-07-31T10:17:15;100615.03;;;20.33;100.00
19236;BME280;9752;54.270;12.470;2023-07-31T10:22:19;100622.84;;;20.78;100.00
19236;BME280;9752;54.270;12.470;2023-07-31T10:27:21;100609.50;;;20.67;100.00
19236;BME280;9752;54.270;12.470;2023-07-31T10:32:26;100615.84;;;21.41;100.00
19236;BME280;9752;54.270;12.470;2023-07-31T10:37:36;100621.66;;;21.83;100.00
19236;BME280;9752;54.270;12.470;2023-07-31T10:42:46;100606.78;;;21.21;100.00
19236;BME280;9752;54.270;12.470;2023-07-31T10:47:58;100604.81;;;21.08;100.00
19236;BME280;9752;54.270;12.470;2023-07-31T10:53:00;100599.94;;;21.35;100.00
19236;BME280;9752;54.270;12.470;2023-07-31T10:58:07;100584.91;;;21.30;100.00
19236;BME280;9752;54.270;12.470;2023-07-31T11:03:12;100590.47;;;20.35;100.00
19236;BME280;9752;54.270;12.470;2023-07-31T11:08:16;100592.91;;;20.23;100.00
19236;BME280;9752;54.270;12.470;2023-07-31T11:13:18;100596.16;;;20.08;100.00
19236;BME280;9752;54.270;12.470;2023-07-31T11:18:21;100599.00;;;20.19;100.00
19236;BME280;9752;54.270;12.470;2023-07-31T11:23:23;100588.13;;;20.00;100.00
19236;BME280;9752;54.270;12.470;2023-07-31T11:28:25;100575.84;;;20.01;100.00
19236;BME280;9752;54.270;12.470;2023-07-31T11:33:28;100574.72;;;19.86;100.00
19236;BME280;9752;54.270;12.470;2023-07-31T11:38:31;100578.31;;;19.90;100.00
19236;BME280;9752;54.270;12.470;2023-07-31T11:43:33;100584.00;;;20.16;100.00
19236;BME280;9752;54.270;12.470;2023-07-31T11:48:38;100589.53;;;19.81;100.00
19236;BME280;9752;54.270;12.470;2023-07-31T11:53:42;100601.81;;;19.81;100.00
19236;BME280;9752;54.270;12.470;2023-07-31T11:58:46;100610.63;;;19.83;100.00
19236;BME280;9752;54.270;12.470;2023-07-31T12:03:50;100615.56;;;19.69;100.00
19236;BME280;9752;54.270;12.470;2023-07-31T12:08:52;100611.03;;;19.62;100.00
19236;BME280;9752;54.270;12.470;2023-07-31T12:13:53;100604.88;;;19.61;100.00
19236;BME280;9752;54.270;12.470;2023-07-31T12:18:56;100600.75;;;19.73;100.00
19236;BME280;9752;54.270;12.470;2023-07-31T12:23:58;100604.53;;;19.44;100.00
19236;BME280;9752;54.270;12.470;2023-07-31T12:29:00;100602.66;;;18.98;100.00
19236;BME280;9752;54.270;12.470;2023-07-31T12:34:03;100613.22;;;18.99;100.00
19236;BME280;9752;54.270;12.470;2023-07-31T12:39:05;100611.88;;;18.45;100.00
19236;BME280;9752;54.270;12.470;2023-07-31T12:44:06;100626.88;;;18.51;100.00
19236;BME280;9752;54.270;12.470;2023-07-31T12:49:09;100635.78;;;18.91;100.00
19236;BME280;9752;54.270;12.470;2023-07-31T12:54:11;100634.50;;;19.11;100.00
19236;BME280;9752;54.270;12.470;2023-07-31T12:59:12;100626.91;;;18.86;100.00
19236;BME280;9752;54.270;12.470;2023-07-31T13:04:16;100635.78;;;18.91;100.00
19236;BME280;9752;54.270;12.470;2023-07-31T13:09:17;100628.56;;;19.20;100.00
19236;BME280;9752;54.270;12.470;2023-07-31T13:14:19;100620.84;;;19.28;100.00
19236;BME280;9752;54.270;12.470;2023-07-31T13:19:22;100632.44;;;19.77;100.00
19236;BME280;9752;54.270;12.470;2023-07-31T13:24:23;100628.09;;;19.79;100.00
19236;BME280;9752;54.270;12.470;2023-07-31T13:29:25;100631.44;;;19.72;100.00
19236;BME280;9752;54.270;12.470;2023-07-31T13:34:28;100619.03;;;19.66;100.00
19236;BME280;9752;54.270;12.470;2023-07-31T13:39:30;100613.09;;;19.34;100.00
19236;BME280;9752;54.270;12.470;2023-07-31T13:44:31;100611.63;;;19.07;100.00
19236;BME280;9752;54.270;12.470;2023-07-31T13:49:35;100607.16;;;18.68;100.00
19236;BME280;9752;54.270;12.470;2023-07-31T13:54:37;100613.22;;;18.29;100.00
19236;BME280;9752;54.270;12.470;2023-07-31T13:59:39;100612.81;;;18.14;100.00
19236;BME280;9752;54.270;12.470;2023-07-31T14:04:41;100655.63;;;18.11;100.00
19236;BME280;9752;54.270;12.470;2023-07-31T14:09:43;100648.75;;;17.85;100.00
19236;BME280;9752;54.270;12.470;2023-07-31T14:14:45;100629.56;;;17.86;100.00
19236;BME280;9752;54.270;12.470;2023-07-31T14:19:48;100649.84;;;17.91;100.00
19236;BME280;9752;54.270;12.470;2023-07-31T14:24:51;100642.25;;;18.02;100.00
19236;BME280;9752;54.270;12.470;2023-07-31T14:29:52;100667.91;;;18.12;100.00
19236;BME280;9752;54.270;12.470;2023-07-31T14:34:55;100680.31;;;18.18;100.00
19236;BME280;9752;54.270;12.470;2023-07-31T14:39:57;100676.34;;;18.34;100.00
19236;BME280;9752;54.270;12.470;2023-07-31T14:44:59;100693.91;;;18.35;100.00
19236;BME280;9752;54.270;12.470;2023-07-31T14:50:02;100693.81;;;18.32;100.00
19236;BME280;9752;54.270;12.470;2023-07-31T14:55:05;100652.34;;;18.20;100.00
19236;BME280;9752;54.270;12.470;2023-07-31T15:00:08;100654.03;;;18.50;100.00
19236;BME280;9752;54.270;12.470;2023-07-31T15:05:12;100656.56;;;18.47;100.00
19236;BME280;9752;54.270;12.470;2023-07-31T15:10:13;100652.06;;;18.09;100.00
19236;BME280;9752;54.270;12.470;2023-07-31T15:15:15;100664.25;;;18.07;100.00
19236;BME280;9752;54.270;12.470;2023-07-31T15:20:18;100759.72;;;18.11;100.00
19236;BME280;9752;54.270;12.470;2023-07-31T15:25:20;100781.84;;;18.19;100.00
19236;BME280;9752;54.270;12.470;2023-07-31T15:30:21;100769.72;;;17.94;100.00
19236;BME280;9752;54.270;12.470;2023-07-31T15:35:25;100764.16;;;17.83;100.00
19236;BME280;9752;54.270;12.470;2023-07-31T15:40:26;100758.63;;;17.74;100.00
19236;BME280;9752;54.270;12.470;2023-07-31T15:45:28;100721.97;;;17.48;100.00
19236;BME280;9752;54.270;12.470;2023-07-31T15:50:32;100766.25;;;17.39;100.00
19236;BME280;9752;54.270;12.470;2023-07-31T15:55:33;100841.41;;;17.39;100.00
19236;BME280;9752;54.270;12.470;2023-07-31T16:00:35;100886.19;;;17.45;100.00
19236;BME280;9752;54.270;12.470;2023-07-31T16:05:38;100896.84;;;17.49;100.00
19236;BME280;9752;54.270;12.470;2023-07-31T16:10:39;100941.00;;;17.37;100.00
19236;BME280;9752;54.270;12.470;2023-07-31T16:15:41;100949.81;;;17.39;100.00
19236;BME280;9752;54.270;12.470;2023-07-31T16:20:44;100944.63;;;17.16;100.00
19236;BME280;9752;54.270;12.470;2023-07-31T16:25:46;100931.56;;;16.92;100.00
19236;BME280;9752;54.270;12.470;2023-07-31T16:30:47;100936.13;;;16.98;100.00
19236;BME280;9752;54.270;12.470;2023-07-31T16:35:50;100981.47;;;17.20;100.00
19236;BME280;9752;54.270;12.470;2023-07-31T16:40:52;100992.16;;;17.02;100.00
19236;BME280;9752;54.270;12.470;2023-07-31T16:45:53;100970.00;;;16.71;100.00
19236;BME280;9752;54.270;12.470;2023-07-31T16:50:56;100981.84;;;16.61;100.00
19236;BME280;9752;54.270;12.470;2023-07-31T16:55:58;100986.97;;;16.35;100.00
19236;BME280;9752;54.270;12.470;2023-07-31T17:01:00;100988.97;;;16.20;100.00
19236;BME280;9752;54.270;12.470;2023-07-31T17:06:03;100984.00;;;16.26;100.00
19236;BME280;9752;54.270;12.470;2023-07-31T17:11:04;100985.53;;;16.21;100.00
19236;BME280;9752;54.270;12.470;2023-07-31T17:16:06;101007.75;;;16.10;100.00
19236;BME280;9752;54.270;12.470;2023-07-31T17:21:09;101004.75;;;15.79;100.00
19236;BME280;9752;54.270;12.470;2023-07-31T17:26:10;101001.94;;;15.75;100.00
19236;BME280;9752;54.270;12.470;2023-07-31T17:31:13;101010.84;;;15.80;100.00
19236;BME280;9752;54.270;12.470;2023-07-31T17:36:16;100998.72;;;15.82;100.00
19236;BME280;9752;54.270;12.470;2023-07-31T17:41:18;101005.63;;;15.80;100.00
19236;BME280;9752;54.270;12.470;2023-07-31T17:46:20;101013.44;;;15.78;100.00
19236;BME280;9752;54.270;12.470;2023-07-31T17:51:23;101023.81;;;15.77;100.00
19236;BME280;9752;54.270;12.470;2023-07-31T17:56:25;101040.25;;;15.74;100.00
19236;BME280;9752;54.270;12.470;2023-07-31T18:01:28;101064.19;;;15.84;100.00
19236;BME280;9752;54.270;12.470;2023-07-31T18:06:31;101045.91;;;15.64;100.00
19236;BME280;9752;54.270;12.470;2023-07-31T18:11:34;101065.38;;;15.51;100.00
19236;BME280;9752;54.270;12.470;2023-07-31T18:16:37;101084.63;;;15.34;100.00
19236;BME280;9752;54.270;12.470;2023-07-31T18:21:40;101097.50;;;15.29;100.00
19236;BME280;9752;54.270;12.470;2023-07-31T18:26:41;101105.41;;;15.31;100.00
19236;BME280;9752;54.270;12.470;2023-07-31T18:31:43;101126.03;;;15.25;100.00
19236;BME280;9752;54.270;12.470;2023-07-31T18:36:46;101138.09;;;15.03;100.00
19236;BME280;9752;54.270;12.470;2023-07-31T18:41:48;101151.47;;;14.91;100.00
19236;BME280;9752;54.270;12.470;2023-07-31T18:46:49;101169.69;;;14.90;100.00
19236;BME280;9752;54.270;12.470;2023-07-31T18:51:52;101187.44;;;14.97;100.00
19236;BME280;9752;54.270;12.470;2023-07-31T18:56:54;101199.38;;;14.92;100.00
19236;BME280;9752;54.270;12.470;2023-07-31T19:01:56;101222.22;;;14.96;100.00
19236;BME280;9752;54.270;12.470;2023-07-31T19:06:59;101252.41;;;14.91;100.00
19236;BME280;9752;54.270;12.470;2023-07-31T19:12:01;101259.19;;;14.87;100.00
19236;BME280;9752;54.270;12.470;2023-07-31T19:17:03;101262.25;;;14.78;100.00
19236;BME280;9752;54.270;12.470;2023-07-31T19:22:06;101275.31;;;14.78;100.00
19236;BME280;9752;54.270;12.470;2023-07-31T19:27:07;101285.19;;;14.84;100.00
19236;BME280;9752;54.270;12.470;2023-07-31T19:32:09;101297.00;;;14.77;100.00
19236;BME280;9752;54.270;12.470;2023-07-31T19:37:14;101306.56;;;14.77;100.00
19236;BME280;9752;54.270;12.470;2023-07-31T19:42:16;101312.56;;;14.74;100.00
19236;BME280;9752;54.270;12.470;2023-07-31T19:47:18;101325.59;;;14.74;100.00
19236;BME280;9752;54.270;12.470;2023-07-31T19:52:21;101374.56;;;14.78;100.00
19236;BME280;9752;54.270;12.470;2023-07-31T19:57:23;101433.06;;;14.82;100.00
19236;BME280;9752;54.270;12.470;2023-07-31T20:02:24;101447.25;;;14.87;100.00
19236;BME280;9752;54.270;12.470;2023-07-31T20:07:27;101484.19;;;14.93;100.00
19236;BME280;9752;54.270;12.470;2023-07-31T20:12:29;101505.06;;;14.93;100.00
19236;BME280;9752;54.270;12.470;2023-07-31T20:17:31;101521.97;;;15.00;100.00
19236;BME280;9752;54.270;12.470;2023-07-31T20:22:34;101543.19;;;15.06;100.00
19236;BME280;9752;54.270;12.470;2023-07-31T20:27:36;101542.19;;;15.04;100.00
19236;BME280;9752;54.270;12.470;2023-07-31T20:32:37;101561.88;;;15.14;100.00
19236;BME280;9752;54.270;12.470;2023-07-31T20:37:40;101574.16;;;15.15;100.00
19236;BME280;9752;54.270;12.470;2023-07-31T20:42:42;101580.16;;;15.14;100.00
19236;BME280;9752;54.270;12.470;2023-07-31T20:47:44;101580.44;;;15.18;100.00
19236;BME280;9752;54.270;12.470;2023-07-31T20:52:48;101587.81;;;15.26;100.00
19236;BME280;9752;54.270;12.470;2023-07-31T20:57:49;101589.00;;;15.32;100.00
19236;BME280;9752;54.270;12.470;2023-07-31T21:02:51;101593.84;;;15.41;100.00
19236;BME280;9752;54.270;12.470;2023-07-31T21:07:54;101599.41;;;15.47;100.00
19236;BME280;9752;54.270;12.470;2023-07-31T21:12:56;101598.59;;;15.48;100.00
19236;BME280;9752;54.270;12.470;2023-07-31T21:17:57;101598.25;;;15.58;100.00
19236;BME280;9752;54.270;12.470;2023-07-31T21:23:00;101598.16;;;15.57;100.00
19236;BME280;9752;54.270;12.470;2023-07-31T21:28:06;101604.63;;;15.64;100.00
19236;BME280;9752;54.270;12.470;2023-07-31T21:33:08;101601.34;;;15.68;100.00
19236;BME280;9752;54.270;12.470;2023-07-31T21:38:11;101604.13;;;15.71;100.00
19236;BME280;9752;54.270;12.470;2023-07-31T21:43:14;101600.97;;;15.76;100.00
19236;BME280;9752;54.270;12.470;2023-07-31T21:48:15;101597.91;;;15.85;100.00
19236;BME280;9752;54.270;12.470;2023-07-31T21:53:18;101598.41;;;15.94;100.00
19236;BME280;9752;54.270;12.470;2023-07-31T21:58:20;101598.13;;;16.06;100.00
19236;BME280;9752;54.270;12.470;2023-07-31T22:03:22;101608.47;;;16.21;100.00
19236;BME280;9752;54.270;12.470;2023-07-31T22:08:25;101612.22;;;16.26;100.00
19236;BME280;9752;54.270;12.470;2023-07-31T22:13:26;101615.81;;;16.28;100.00
19236;BME280;9752;54.270;12.470;2023-07-31T22:18:29;101607.28;;;16.32;100.00
19236;BME280;9752;54.270;12.470;2023-07-31T22:23:31;101604.00;;;16.36;100.00
19236;BME280;9752;54.270;12.470;2023-07-31T22:28:33;101600.88;;;16.44;100.00
19236;BME280;9752;54.270;12.470;2023-07-31T22:33:35;101594.13;;;16.49;100.00
19236;BME280;9752;54.270;12.470;2023-07-31T22:38:38;101606.69;;;16.56;100.00
19236;BME280;9752;54.270;12.470;2023-07-31T22:43:40;101620.91;;;16.61;100.00
19236;BME280;9752;54.270;12.470;2023-07-31T22:48:41;101643.28;;;16.72;100.00
19236;BME280;9752;54.270;12.470;2023-07-31T22:53:44;101646.16;;;16.77;100.00
19236;BME280;9752;54.270;12.470;2023-07-31T22:58:46;101665.50;;;16.81;100.00
19236;BME280;9752;54.270;12.470;2023-07-31T23:03:48;101682.41;;;16.86;100.00
19236;BME280;9752;54.270;12.470;2023-07-31T23:08:51;101658.06;;;16.88;100.00
19236;BME280;9752;54.270;12.470;2023-07-31T23:13:52;101651.03;;;16.87;100.00
19236;BME280;9752;54.270;12.470;2023-07-31T23:18:54;101663.25;;;16.87;100.00
19236;BME280;9752;54.270;12.470;2023-07-31T23:23:57;101654.53;;;16.88;100.00
19236;BME280;9752;54.270;12.470;2023-07-31T23:28:59;101659.09;;;16.92;100.00
19236;BME280;9752;54.270;12.470;2023-07-31T23:34:01;101655.38;;;16.87;100.00
19236;BME280;9752;54.270;12.470;2023-07-31T23:39:04;101653.50;;;16.84;100.00
19236;BME280;9752;54.270;12.470;2023-07-31T23:44:07;101643.53;;;16.77;100.00
19236;BME280;9752;54.270;12.470;2023-07-31T23:49:09;101640.50;;;16.69;100.00
19236;BME280;9752;54.270;12.470;2023-07-31T23:54:12;101638.56;;;16.65;100.00
19236;BME280;9752;54.270;12.470;2023-07-31T23:59:14;101626.16;;;16.61;100.00
